Time;durP1;ratioP1;P1;durP2;ratioP2;P2;SDS_P1;SDS_P2;PMS_P1;PMS_P2;Temp;Humidity;BMP_temperature;BMP_pressure;BME280_temperature;BME280_humidity;BME280_pressure;Samples;Min_cycle;Max_cycle;Signal;HPM_P1;HPM_P2
2023/10/04 00:01:33;;;;;;;;;;;;;;;15.78;82.81;100198.77;107654;275;105775;-57
2023/10/04 00:04:03;;;;;;;;;;;;;;;15.77;83.03;100205.98;107659;275;114269;-57
2023/10/04 00:06:33;;;;;;;;;;;;;;;15.79;83.13;100204.23;107626;275;97195;-55
2023/10/04 00:09:08;;;;;;;;;;;;;;;15.82;83.08;100201.86;107567;275;97312;-56
2023/10/04 00:11:53;;;;;;;;;;;;;;;15.83;83.25;100197.07;107616;275;121842;-56
2023/10/04 00:14:30;;;;;;;;;;;;;;;15.77;83.41;100188.39;107702;275;104341;-54
2023/10/04 00:17:08;;;;;;;;;;;;;;;15.77;83.32;100191.77;107605;275;114499;-60
2023/10/04 00:19:43;;;;;;;;;;;;;;;15.70;83.46;100192.65;107614;275;96322;-60
2023/10/04 00:22:18;;;;;;;;;;;;;;;15.72;83.73;100196.73;107723;275;96406;-56
2023/10/04 00:24:57;;;;;;;;;;;;;;;15.72;83.64;100187.91;107682;275;121146;-56
2023/10/04 00:27:32;;;;;;;;;;;;;;;15.70;83.74;100173.09;107698;275;104960;-60
2023/10/04 00:30:16;;;;;;;;;;;;;;;15.71;84.00;100170.77;107680;275;113883;-61
2023/10/04 00:32:55;;;;;;;;;;;;;;;15.69;84.07;100189.73;107629;275;95236;-60
2023/10/04 00:35:26;;;;;;;;;;;;;;;15.70;84.21;100200.45;107702;275;97700;-59
2023/10/04 00:38:01;;;;;;;;;;;;;;;15.70;84.51;100201.46;107683;275;122640;-59
2023/10/04 00:40:37;;;;;;;;;;;;;;;15.68;84.54;100209.02;107675;275;105307;-55
2023/10/04 00:43:19;;;;;;;;;;;;;;;15.70;84.86;100211.42;107630;275;114601;-55
2023/10/04 00:45:53;;;;;;;;;;;;;;;15.69;84.90;100219.46;107616;275;96119;-55
2023/10/04 00:48:34;;;;;;;;;;;;;;;15.70;84.85;100233.10;107660;275;97224;-55
2023/10/04 00:51:14;;;;;;;;;;;;;;;15.71;85.17;100244.59;107671;275;119572;-56
2023/10/04 00:53:53;;;;;;;;;;;;;;;15.72;85.27;100260.81;107446;275;105318;-55
2023/10/04 00:56:28;;;;;;;;;;;;;;;15.73;85.52;100280.42;107687;275;113291;-59
2023/10/04 00:59:09;;;;;;;;;;;;;;;15.69;85.68;100285.73;107628;275;96036;-59
2023/10/04 01:01:44;;;;;;;;;;;;;;;15.61;85.61;100295.91;107710;275;98679;-58
2023/10/04 01:04:26;;;;;;;;;;;;;;;15.54;85.53;100305.70;107765;275;121669;-59
2023/10/04 01:07:04;;;;;;;;;;;;;;;15.46;85.68;100314.30;107802;275;105241;-60
2023/10/04 01:09:45;;;;;;;;;;;;;;;15.45;85.71;100314.47;107670;275;113860;-59
2023/10/04 01:12:24;;;;;;;;;;;;;;;15.40;85.58;100317.85;107684;275;96124;-58
2023/10/04 01:15:20;;;;;;;;;;;;;;;15.34;85.35;100330.81;107777;275;95752;-60
2023/10/04 01:17:53;;;;;;;;;;;;;;;15.33;85.14;100334.11;107642;275;122880;-56
2023/10/04 01:20:30;;;;;;;;;;;;;;;15.24;85.06;100339.42;107721;275;103625;-58
2023/10/04 01:23:05;;;;;;;;;;;;;;;15.17;85.21;100355.13;107690;275;114022;-59
2023/10/04 01:25:41;;;;;;;;;;;;;;;15.09;84.92;100366.13;107716;275;96636;-55
2023/10/04 01:28:17;;;;;;;;;;;;;;;14.99;85.00;100381.84;107655;275;97954;-56
2023/10/04 01:30:51;;;;;;;;;;;;;;;14.95;85.21;100386.14;107670;275;119274;-60
2023/10/04 01:33:28;;;;;;;;;;;;;;;14.92;85.41;100384.64;107682;275;104761;-59
2023/10/04 01:36:05;;;;;;;;;;;;;;;14.90;85.24;100384.03;107703;275;114766;-56
2023/10/04 01:38:42;;;;;;;;;;;;;;;14.80;85.40;100394.45;107681;275;96128;-56
2023/10/04 01:41:17;;;;;;;;;;;;;;;14.77;85.42;100385.23;107668;275;98143;-58
2023/10/04 01:44:02;;;;;;;;;;;;;;;14.68;85.66;100378.95;107699;275;121958;-58
2023/10/04 01:46:41;;;;;;;;;;;;;;;14.62;85.67;100374.11;107708;275;104778;-56
2023/10/04 01:49:18;;;;;;;;;;;;;;;14.61;85.50;100395.34;107726;275;113726;-56
2023/10/04 01:51:56;;;;;;;;;;;;;;;14.56;85.52;100420.79;107686;275;96895;-60
2023/10/04 01:54:30;;;;;;;;;;;;;;;14.53;85.37;100419.11;107759;275;96107;-59
2023/10/04 01:57:06;;;;;;;;;;;;;;;14.53;85.42;100420.09;107687;275;122077;-57
2023/10/04 01:59:41;;;;;;;;;;;;;;;14.47;85.40;100434.11;107714;275;105225;-58
2023/10/04 02:02:17;;;;;;;;;;;;;;;14.43;85.20;100449.34;107710;275;114735;-55
2023/10/04 02:04:53;;;;;;;;;;;;;;;14.43;85.25;100465.06;107655;275;97312;-55
2023/10/04 02:07:34;;;;;;;;;;;;;;;14.39;85.47;100474.41;107659;275;98045;-55
2023/10/04 02:10:09;;;;;;;;;;;;;;;14.40;85.45;100471.55;107634;275;121810;-54
2023/10/04 02:12:41;;;;;;;;;;;;;;;14.36;85.51;100472.23;107696;275;104670;-58
2023/10/04 02:15:14;;;;;;;;;;;;;;;14.33;85.77;100482.35;107661;275;114238;-58
2023/10/04 02:17:49;;;;;;;;;;;;;;;14.28;85.73;100494.41;107673;275;96813;-57
2023/10/04 02:20:23;;;;;;;;;;;;;;;14.27;85.59;100497.20;107706;275;97078;-54
2023/10/04 02:22:58;;;;;;;;;;;;;;;14.20;85.58;100504.38;107684;275;121580;-59
2023/10/04 02:25:33;;;;;;;;;;;;;;;14.08;85.54;100510.77;107534;275;104694;-54
2023/10/04 02:28:11;;;;;;;;;;;;;;;13.95;85.58;100514.54;107685;275;115153;-54
2023/10/04 02:30:48;;;;;;;;;;;;;;;13.84;85.66;100518.58;107647;275;97276;-58
2023/10/04 02:33:31;;;;;;;;;;;;;;;13.78;85.56;100524.13;107600;275;97734;-58
2023/10/04 02:36:11;;;;;;;;;;;;;;;13.74;85.75;100533.80;107624;275;120402;-56
2023/10/04 02:38:44;;;;;;;;;;;;;;;13.73;85.67;100542.54;107674;275;105045;-55
2023/10/04 02:41:26;;;;;;;;;;;;;;;13.71;85.69;100542.20;107615;275;113628;-57
2023/10/04 02:44:03;;;;;;;;;;;;;;;13.72;85.90;100548.63;107593;275;97378;-57
2023/10/04 02:46:35;;;;;;;;;;;;;;;13.72;86.13;100552.23;107514;275;99099;-57
2023/10/04 02:49:09;;;;;;;;;;;;;;;13.71;85.95;100555.69;107620;275;120100;-57
2023/10/04 02:51:44;;;;;;;;;;;;;;;13.68;86.07;100563.30;107662;275;105090;-57
2023/10/04 02:54:23;;;;;;;;;;;;;;;13.74;86.19;100571.49;107669;275;113774;-57
2023/10/04 02:56:58;;;;;;;;;;;;;;;13.76;86.33;100572.02;107678;275;95458;-59
2023/10/04 02:59:33;;;;;;;;;;;;;;;13.72;86.39;100580.29;107651;275;98469;-59
2023/10/04 03:02:07;;;;;;;;;;;;;;;13.68;86.35;100580.28;107633;275;121904;-55
2023/10/04 03:04:50;;;;;;;;;;;;;;;13.60;86.17;100579.98;107604;275;106408;-55
2023/10/04 03:07:21;;;;;;;;;;;;;;;13.50;86.12;100585.95;107701;275;113663;-58
2023/10/04 03:09:56;;;;;;;;;;;;;;;13.44;86.09;100589.05;107669;275;96376;-58
2023/10/04 03:12:29;;;;;;;;;;;;;;;13.36;86.20;100594.59;107808;275;98432;-60
2023/10/04 03:15:04;;;;;;;;;;;;;;;13.31;86.35;100596.44;107735;275;123074;-60
2023/10/04 03:17:38;;;;;;;;;;;;;;;13.24;86.50;100603.34;107738;275;104999;-56
2023/10/04 03:20:20;;;;;;;;;;;;;;;13.19;86.51;100602.10;107609;275;114143;-56
2023/10/04 03:22:59;;;;;;;;;;;;;;;13.11;86.56;100605.86;107647;275;96830;-57
2023/10/04 03:25:38;;;;;;;;;;;;;;;13.09;86.67;100616.86;107682;275;95449;-58
2023/10/04 03:28:15;;;;;;;;;;;;;;;13.06;86.82;100621.13;107681;275;121729;-60
2023/10/04 03:30:49;;;;;;;;;;;;;;;13.02;86.87;100614.04;107672;275;105943;-58
2023/10/04 03:33:25;;;;;;;;;;;;;;;12.99;86.96;100619.61;107636;275;113937;-59
2023/10/04 03:35:58;;;;;;;;;;;;;;;13.02;86.73;100623.43;107661;275;96468;-54
2023/10/04 03:38:35;;;;;;;;;;;;;;;13.01;86.94;100627.92;107660;275;98434;-54
2023/10/04 03:41:16;;;;;;;;;;;;;;;12.97;87.05;100629.91;107678;275;121939;-54
2023/10/04 03:43:55;;;;;;;;;;;;;;;12.96;87.23;100633.03;107668;275;105395;-55
2023/10/04 03:46:31;;;;;;;;;;;;;;;13.02;87.20;100635.14;107719;275;113729;-59
2023/10/04 03:49:06;;;;;;;;;;;;;;;13.05;87.16;100648.27;107740;275;97039;-60
2023/10/04 03:51:41;;;;;;;;;;;;;;;13.02;87.21;100654.35;107803;275;97857;-55
2023/10/04 03:54:14;;;;;;;;;;;;;;;13.07;87.22;100660.47;107529;275;124369;-55
2023/10/04 03:56:46;;;;;;;;;;;;;;;13.10;87.29;100663.40;107709;275;105111;-56
2023/10/04 03:59:23;;;;;;;;;;;;;;;13.16;87.35;100666.10;107075;275;532658;-54
2023/10/04 04:02:05;;;;;;;;;;;;;;;13.16;87.36;100670.24;107738;275;96813;-55
2023/10/04 04:04:39;;;;;;;;;;;;;;;13.19;87.22;100672.80;107715;275;97966;-56
2023/10/04 04:07:14;;;;;;;;;;;;;;;13.16;87.28;100676.24;107610;275;121564;-58
2023/10/04 04:09:46;;;;;;;;;;;;;;;13.17;87.13;100682.89;107636;275;105557;-58
2023/10/04 04:12:18;;;;;;;;;;;;;;;13.12;87.05;100687.28;107683;275;114203;-57
2023/10/04 04:14:53;;;;;;;;;;;;;;;13.09;86.83;100689.36;107633;275;96380;-59
2023/10/04 04:17:33;;;;;;;;;;;;;;;13.06;86.87;100698.02;107675;275;98030;-55
2023/10/04 04:20:13;;;;;;;;;;;;;;;13.03;86.77;100700.83;107637;275;120570;-54
2023/10/04 04:22:54;;;;;;;;;;;;;;;13.01;86.89;100704.90;107724;275;106789;-59
2023/10/04 04:25:30;;;;;;;;;;;;;;;13.03;86.98;100706.30;107756;275;114299;-58
2023/10/04 04:28:07;;;;;;;;;;;;;;;13.05;86.98;100712.61;107750;275;96762;-59
2023/10/04 04:30:46;;;;;;;;;;;;;;;13.07;86.91;100711.57;107808;275;97524;-60
2023/10/04 04:33:27;;;;;;;;;;;;;;;13.04;87.16;100713.37;107813;275;121264;-59
2023/10/04 04:36:08;;;;;;;;;;;;;;;13.05;87.00;100717.08;107758;275;105551;-56
2023/10/04 04:38:40;;;;;;;;;;;;;;;13.06;86.96;100722.56;107701;275;114797;-55
2023/10/04 04:41:21;;;;;;;;;;;;;;;13.07;86.92;100721.58;107702;275;96374;-58
2023/10/04 04:43:55;;;;;;;;;;;;;;;13.11;87.06;100719.30;107656;275;97741;-58
2023/10/04 04:46:34;;;;;;;;;;;;;;;13.14;86.94;100722.47;107698;275;121953;-54
2023/10/04 04:49:10;;;;;;;;;;;;;;;13.18;86.91;100718.17;107686;275;105472;-54
2023/10/04 04:51:46;;;;;;;;;;;;;;;13.22;87.00;100727.16;107685;275;113978;-59
2023/10/04 04:54:24;;;;;;;;;;;;;;;13.19;86.97;100734.27;107678;275;96750;-59
2023/10/04 04:56:57;;;;;;;;;;;;;;;13.20;86.96;100736.67;107718;275;97881;-55
2023/10/04 04:59:33;;;;;;;;;;;;;;;13.20;86.86;100741.25;107670;275;121608;-55
2023/10/04 05:02:06;;;;;;;;;;;;;;;13.24;86.67;100745.50;107628;275;105605;-58
2023/10/04 05:04:43;;;;;;;;;;;;;;;13.23;86.80;100748.33;107654;275;115148;-57
2023/10/04 05:07:18;;;;;;;;;;;;;;;13.27;86.68;100745.02;107677;275;96888;-54
2023/10/04 05:09:56;;;;;;;;;;;;;;;13.28;86.71;100751.13;107684;275;98161;-53
2023/10/04 05:12:30;;;;;;;;;;;;;;;13.27;86.60;100754.58;107709;275;122145;-58
2023/10/04 05:15:18;;;;;;;;;;;;;;;13.30;86.64;100757.61;107655;275;105517;-58
2023/10/04 05:18:00;;;;;;;;;;;;;;;13.35;86.37;100761.06;107668;275;114549;-58
2023/10/04 05:20:36;;;;;;;;;;;;;;;13.39;86.25;100763.17;107647;275;96242;-55
2023/10/04 05:23:11;;;;;;;;;;;;;;;13.38;86.17;100761.42;107676;275;97596;-55
2023/10/04 05:25:53;;;;;;;;;;;;;;;13.40;86.07;100762.86;107634;275;121413;-57
2023/10/04 05:28:34;;;;;;;;;;;;;;;13.43;85.95;100768.14;107639;275;104759;-58
2023/10/04 05:31:11;;;;;;;;;;;;;;;13.43;85.77;100767.77;107677;272;115204;-60
2023/10/04 05:33:47;;;;;;;;;;;;;;;13.46;85.93;100775.58;107661;275;95588;-59
2023/10/04 05:36:21;;;;;;;;;;;;;;;13.44;85.79;100774.02;107701;275;95702;-58
2023/10/04 05:38:55;;;;;;;;;;;;;;;13.46;85.80;100776.24;107654;275;121974;-58
2023/10/04 05:41:31;;;;;;;;;;;;;;;13.52;85.57;100790.57;107664;275;105421;-59
2023/10/04 05:44:06;;;;;;;;;;;;;;;13.54;85.55;100798.14;107647;275;114257;-58
2023/10/04 05:46:44;;;;;;;;;;;;;;;13.54;85.50;100805.20;107683;275;96190;-54
2023/10/04 05:49:22;;;;;;;;;;;;;;;13.57;85.56;100807.73;107687;275;98245;-54
2023/10/04 05:52:00;;;;;;;;;;;;;;;13.61;85.52;100814.73;107664;275;123019;-55
2023/10/04 05:54:37;;;;;;;;;;;;;;;13.61;85.31;100827.60;107670;275;105532;-55
2023/10/04 05:57:09;;;;;;;;;;;;;;;13.66;84.99;100829.14;107725;275;114723;-56
2023/10/04 05:59:41;;;;;;;;;;;;;;;13.65;85.05;100833.89;107707;275;96967;-58
2023/10/04 06:02:15;;;;;;;;;;;;;;;13.65;85.19;100833.17;107707;275;96179;-56
2023/10/04 06:04:53;;;;;;;;;;;;;;;13.69;85.07;100835.00;107686;275;120641;-55
2023/10/04 06:07:29;;;;;;;;;;;;;;;13.74;84.95;100831.65;107748;275;104341;-59
2023/10/04 06:10:06;;;;;;;;;;;;;;;13.80;84.92;100833.45;107709;275;114489;-58
2023/10/04 06:12:47;;;;;;;;;;;;;;;13.87;84.98;100838.45;107737;275;96028;-60
2023/10/04 06:15:21;;;;;;;;;;;;;;;13.94;84.59;100843.84;107741;275;97965;-56
2023/10/04 06:18:00;;;;;;;;;;;;;;;13.98;84.76;100848.01;107485;275;121280;-54
2023/10/04 06:20:33;;;;;;;;;;;;;;;14.02;84.78;100854.13;107669;275;104010;-54
2023/10/04 06:23:14;;;;;;;;;;;;;;;14.09;84.53;100852.70;107639;275;111938;-54
2023/10/04 06:25:50;;;;;;;;;;;;;;;14.15;84.36;100858.84;107667;275;97132;-59
2023/10/04 06:28:27;;;;;;;;;;;;;;;14.18;84.25;100864.91;107715;275;98527;-60
2023/10/04 06:31:03;;;;;;;;;;;;;;;14.15;84.25;100866.88;107695;275;121493;-54
2023/10/04 06:33:43;;;;;;;;;;;;;;;14.17;84.20;100870.05;107629;275;104915;-55
2023/10/04 06:36:20;;;;;;;;;;;;;;;14.13;84.02;100873.01;107649;275;114961;-55
2023/10/04 06:38:57;;;;;;;;;;;;;;;14.13;83.82;100873.50;107652;275;94506;-55
2023/10/04 06:41:34;;;;;;;;;;;;;;;14.08;83.70;100879.53;107698;275;96668;-56
2023/10/04 06:44:07;;;;;;;;;;;;;;;14.04;83.69;100884.41;107636;275;120915;-56
2023/10/04 06:46:46;;;;;;;;;;;;;;;14.05;83.75;100887.33;107661;275;105654;-59
2023/10/04 06:49:28;;;;;;;;;;;;;;;14.02;83.68;100883.84;107685;275;114313;-60
2023/10/04 06:52:13;;;;;;;;;;;;;;;14.03;83.64;100887.00;107645;275;96867;-60
2023/10/04 06:54:49;;;;;;;;;;;;;;;14.06;83.45;100893.48;107667;275;97117;-60
2023/10/04 06:57:25;;;;;;;;;;;;;;;14.08;83.50;100898.89;107682;275;121082;-55
2023/10/04 07:00:02;;;;;;;;;;;;;;;14.11;83.26;100903.51;107641;275;103550;-54
2023/10/04 07:02:36;;;;;;;;;;;;;;;14.15;83.40;100899.72;107472;275;113115;-54
2023/10/04 07:05:11;;;;;;;;;;;;;;;14.31;83.35;100904.17;107455;275;95720;-53
2023/10/04 07:07:44;;;;;;;;;;;;;;;14.39;82.83;100906.70;107758;275;95696;-59
2023/10/04 07:10:20;;;;;;;;;;;;;;;14.48;82.71;100901.51;107643;275;122106;-61
2023/10/04 07:12:57;;;;;;;;;;;;;;;14.53;82.47;100908.43;107630;275;105491;-61
2023/10/04 07:15:35;;;;;;;;;;;;;;;14.60;82.41;100912.48;107655;275;114968;-59
2023/10/04 07:18:09;;;;;;;;;;;;;;;14.66;82.20;100919.21;107696;275;96043;-55
2023/10/04 07:20:50;;;;;;;;;;;;;;;14.78;81.91;100921.09;107519;275;96766;-58
2023/10/04 07:23:22;;;;;;;;;;;;;;;14.80;81.80;100929.38;107681;275;120530;-58
2023/10/04 07:25:57;;;;;;;;;;;;;;;14.86;81.59;100928.94;107515;275;104167;-60
2023/10/04 07:28:40;;;;;;;;;;;;;;;14.83;80.97;100925.91;107666;275;114986;-60
2023/10/04 07:31:17;;;;;;;;;;;;;;;14.90;81.11;100929.23;107695;275;97403;-55
2023/10/04 07:33:50;;;;;;;;;;;;;;;15.28;81.26;100925.95;107693;275;96574;-55
2023/10/04 07:36:26;;;;;;;;;;;;;;;15.46;80.19;100933.36;107724;275;119861;-56
2023/10/04 07:39:00;;;;;;;;;;;;;;;15.66;80.53;100934.89;107528;275;107165;-56
2023/10/04 07:41:37;;;;;;;;;;;;;;;15.81;80.17;100934.44;107708;275;113386;-59
2023/10/04 07:44:10;;;;;;;;;;;;;;;16.11;80.21;100933.94;107628;275;93948;-59
2023/10/04 07:46:42;;;;;;;;;;;;;;;16.57;79.31;100932.70;107686;275;97081;-61
2023/10/04 07:49:19;;;;;;;;;;;;;;;16.98;79.16;100931.48;107638;275;120298;-62
2023/10/04 07:51:56;;;;;;;;;;;;;;;17.81;78.56;100929.66;107667;275;103327;-56
2023/10/04 07:54:31;;;;;;;;;;;;;;;18.54;77.39;100922.63;107650;275;113832;-56
2023/10/04 07:57:06;;;;;;;;;;;;;;;19.91;75.64;100921.53;107656;275;94879;-55
2023/10/04 07:59:47;;;;;;;;;;;;;;;21.61;73.93;100918.91;107694;275;97621;-55
2023/10/04 08:02:23;;;;;;;;;;;;;;;22.59;71.06;100923.71;107685;275;121913;-55
2023/10/04 08:04:56;;;;;;;;;;;;;;;22.11;69.25;100920.68;107618;275;105154;-57
2023/10/04 08:07:27;;;;;;;;;;;;;;;20.86;68.49;100932.82;107487;275;114904;-56
2023/10/04 08:09:58;;;;;;;;;;;;;;;19.70;67.57;100938.28;107656;275;94062;-55
2023/10/04 08:12:34;;;;;;;;;;;;;;;18.77;67.98;100939.63;107686;275;97646;-61
2023/10/04 08:15:07;;;;;;;;;;;;;;;18.01;67.83;100947.86;107681;275;121253;-61
2023/10/04 08:17:48;;;;;;;;;;;;;;;17.52;68.38;100951.32;107752;275;105681;-61
2023/10/04 08:20:29;;;;;;;;;;;;;;;17.14;69.14;100959.95;107456;275;113777;-56
2023/10/04 08:23:02;;;;;;;;;;;;;;;16.78;69.33;100966.10;107692;275;92896;-60
2023/10/04 08:25:49;;;;;;;;;;;;;;;16.65;69.72;100969.42;107701;275;97067;-55
2023/10/04 08:28:25;;;;;;;;;;;;;;;16.49;70.36;100973.09;107645;275;122611;-55
2023/10/04 08:30:59;;;;;;;;;;;;;;;16.31;70.68;100974.84;107486;275;104001;-60
2023/10/04 08:33:32;;;;;;;;;;;;;;;16.20;70.91;100980.10;107650;275;113357;-60
2023/10/04 08:36:10;;;;;;;;;;;;;;;16.17;71.25;100984.02;107732;275;95057;-59
2023/10/04 08:38:41;;;;;;;;;;;;;;;16.04;71.58;100989.17;107673;275;95291;-58
2023/10/04 08:41:12;;;;;;;;;;;;;;;15.88;71.90;100994.12;107676;275;121944;-54
2023/10/04 08:43:46;;;;;;;;;;;;;;;15.74;72.25;100993.44;107664;275;103974;-57
2023/10/04 08:46:18;;;;;;;;;;;;;;;15.65;72.70;101000.43;107537;275;113545;-56
2023/10/04 08:48:53;;;;;;;;;;;;;;;15.58;72.91;101006.73;107656;275;95002;-55
2023/10/04 08:51:43;;;;;;;;;;;;;;;15.51;73.15;101007.78;107717;275;97810;-58
2023/10/04 08:54:21;;;;;;;;;;;;;;;15.39;73.34;101007.23;107612;275;122296;-58
2023/10/04 08:56:58;;;;;;;;;;;;;;;15.30;73.23;101006.08;107664;275;105610;-62
2023/10/04 08:59:34;;;;;;;;;;;;;;;15.25;73.24;101014.84;107713;275;114315;-60
2023/10/04 09:02:11;;;;;;;;;;;;;;;15.23;73.45;101017.01;107749;275;95823;-61
2023/10/04 09:04:47;;;;;;;;;;;;;;;15.17;73.57;101022.06;107757;275;97958;-61
2023/10/04 09:07:19;;;;;;;;;;;;;;;15.12;73.66;101028.03;107665;275;122053;-60
2023/10/04 09:09:50;;;;;;;;;;;;;;;15.07;73.83;101024.45;107742;275;105457;-61
2023/10/04 09:12:36;;;;;;;;;;;;;;;15.01;73.94;101029.91;107698;275;115848;-60
2023/10/04 09:15:18;;;;;;;;;;;;;;;14.94;74.29;101032.55;107691;275;96335;-60
2023/10/04 09:17:55;;;;;;;;;;;;;;;15.05;74.62;101033.07;107514;275;97163;-55
2023/10/04 09:20:29;;;;;;;;;;;;;;;15.15;74.57;101032.58;107673;275;121996;-54
2023/10/04 09:23:02;;;;;;;;;;;;;;;15.29;74.46;101031.06;107630;275;106177;-54
2023/10/04 09:25:42;;;;;;;;;;;;;;;15.48;74.70;101030.27;107666;275;113838;-57
2023/10/04 09:28:16;;;;;;;;;;;;;;;15.63;74.54;101034.41;107654;275;94429;-56
2023/10/04 09:30:49;;;;;;;;;;;;;;;15.68;74.43;101036.61;107701;275;96173;-56
2023/10/04 09:33:32;;;;;;;;;;;;;;;15.68;74.36;101038.63;107660;275;121803;-56
2023/10/04 09:36:10;;;;;;;;;;;;;;;15.73;74.43;101038.33;107755;275;105764;-57
2023/10/04 09:38:44;;;;;;;;;;;;;;;15.68;74.28;101034.13;107523;275;114188;-56
2023/10/04 09:41:21;;;;;;;;;;;;;;;15.58;74.01;101034.98;107741;275;95344;-55
2023/10/04 09:44:04;;;;;;;;;;;;;;;15.47;74.26;101035.74;107678;275;97306;-55
2023/10/04 09:46:48;;;;;;;;;;;;;;;15.38;74.16;101040.14;107703;275;122094;-60
2023/10/04 09:49:23;;;;;;;;;;;;;;;15.33;74.25;101045.69;107657;275;104241;-60
2023/10/04 09:51:57;;;;;;;;;;;;;;;15.21;74.15;101050.98;107661;275;114786;-56
2023/10/04 09:54:36;;;;;;;;;;;;;;;15.17;74.12;101052.83;107657;275;93323;-56
2023/10/04 09:57:18;;;;;;;;;;;;;;;15.19;74.14;101055.45;107650;275;97698;-54
2023/10/04 09:59:51;;;;;;;;;;;;;;;15.16;74.23;101057.15;107687;275;121693;-55
2023/10/04 10:02:32;;;;;;;;;;;;;;;15.10;74.37;101053.36;107702;275;105746;-59
2023/10/04 10:05:05;;;;;;;;;;;;;;;15.02;74.19;101059.95;107650;275;114752;-59
2023/10/04 10:07:41;;;;;;;;;;;;;;;15.00;74.14;101061.01;107540;275;99412;-59
2023/10/04 10:10:20;;;;;;;;;;;;;;;15.01;74.19;101056.02;107699;275;97991;-58
2023/10/04 10:12:55;;;;;;;;;;;;;;;14.94;74.32;101056.21;107625;275;121874;-58
2023/10/04 10:15:27;;;;;;;;;;;;;;;14.95;74.29;101050.05;107704;275;105025;-58
2023/10/04 10:18:02;;;;;;;;;;;;;;;14.97;74.20;101053.20;107652;275;115221;-60
2023/10/04 10:20:39;;;;;;;;;;;;;;;15.01;74.28;101052.98;107630;275;94250;-55
2023/10/04 10:23:13;;;;;;;;;;;;;;;15.08;74.33;101046.99;107671;275;96174;-54
2023/10/04 10:26:23;;;;;;;;;;;;;;;15.14;74.27;101045.59;107694;275;122120;-58
2023/10/04 10:29:04;;;;;;;;;;;;;;;15.27;74.30;101045.98;107690;275;105054;-59
2023/10/04 10:31:35;;;;;;;;;;;;;;;15.37;74.32;101040.89;107646;275;114714;-60
2023/10/04 10:34:07;;;;;;;;;;;;;;;15.49;74.15;101048.32;107705;275;93256;-61
2023/10/04 10:36:45;;;;;;;;;;;;;;;15.59;73.93;101045.55;107717;275;97278;-60
2023/10/04 10:39:30;;;;;;;;;;;;;;;15.62;73.80;101045.85;107686;275;121657;-58
2023/10/04 10:42:04;;;;;;;;;;;;;;;15.69;73.60;101041.17;107532;275;107989;-54
2023/10/04 10:44:39;;;;;;;;;;;;;;;15.70;73.79;101043.15;107654;275;114673;-55
2023/10/04 10:47:17;;;;;;;;;;;;;;;15.73;74.01;101040.55;107642;275;94682;-58
2023/10/04 10:49:50;;;;;;;;;;;;;;;15.73;73.92;101036.90;107652;275;97032;-58
2023/10/04 10:52:29;;;;;;;;;;;;;;;15.63;73.68;101042.77;107655;275;122636;-58
2023/10/04 10:55:01;;;;;;;;;;;;;;;15.56;73.53;101043.23;107648;275;104880;-58
2023/10/04 10:57:36;;;;;;;;;;;;;;;15.45;73.19;101045.54;107638;275;114090;-59
2023/10/04 11:00:13;;;;;;;;;;;;;;;15.41;73.31;101044.42;107655;275;95057;-58
2023/10/04 11:02:53;;;;;;;;;;;;;;;15.41;73.46;101044.63;107715;275;97246;-55
2023/10/04 11:05:30;;;;;;;;;;;;;;;15.36;73.25;101047.50;107723;275;122641;-60
2023/10/04 11:08:06;;;;;;;;;;;;;;;15.30;73.27;101049.05;107669;275;105795;-60
2023/10/04 11:10:40;;;;;;;;;;;;;;;15.21;73.35;101054.11;107758;275;114922;-60
2023/10/04 11:13:18;;;;;;;;;;;;;;;15.13;73.46;101052.66;107607;275;94865;-58
2023/10/04 11:15:53;;;;;;;;;;;;;;;15.12;73.51;101050.80;107490;275;98628;-55
2023/10/04 11:18:29;;;;;;;;;;;;;;;15.12;73.37;101050.55;107645;275;122939;-55
2023/10/04 11:21:06;;;;;;;;;;;;;;;15.10;73.57;101045.16;107503;275;104978;-58
2023/10/04 11:23:42;;;;;;;;;;;;;;;15.10;73.61;101044.80;107638;275;115133;-58
2023/10/04 11:26:24;;;;;;;;;;;;;;;15.13;73.61;101037.34;107685;275;94979;-57
2023/10/04 11:29:05;;;;;;;;;;;;;;;15.18;73.54;101039.83;107720;275;97705;-56
2023/10/04 11:31:47;;;;;;;;;;;;;;;15.19;73.27;101028.27;107736;275;120499;-60
2023/10/04 11:34:20;;;;;;;;;;;;;;;15.20;73.10;101029.59;107510;275;108572;-58
2023/10/04 11:36:59;;;;;;;;;;;;;;;15.26;73.15;101026.75;107700;275;114644;-58
2023/10/04 11:39:35;;;;;;;;;;;;;;;15.30;72.98;101027.77;107725;275;96526;-59
2023/10/04 11:42:17;;;;;;;;;;;;;;;15.34;72.90;101029.52;107669;275;95412;-60
2023/10/04 11:44:56;;;;;;;;;;;;;;;15.41;72.78;101027.50;107627;275;119901;-60
2023/10/04 11:47:34;;;;;;;;;;;;;;;15.46;72.99;101025.46;107453;275;105315;-58
2023/10/04 11:50:10;;;;;;;;;;;;;;;15.56;72.83;101031.63;107628;275;112343;-58
2023/10/04 11:52:48;;;;;;;;;;;;;;;15.64;72.90;101027.41;107690;275;95024;-56
2023/10/04 11:55:28;;;;;;;;;;;;;;;15.66;72.45;101026.33;107697;275;98315;-57
2023/10/04 11:58:10;;;;;;;;;;;;;;;15.68;72.19;101034.35;106987;277;595128;-55
2023/10/04 12:00:52;;;;;;;;;;;;;;;15.68;72.30;101035.94;107631;275;104872;-60
2023/10/04 12:03:30;;;;;;;;;;;;;;;15.65;72.37;101038.02;107684;275;114598;-60
2023/10/04 12:06:02;;;;;;;;;;;;;;;15.66;72.33;101041.84;107712;275;95038;-59
2023/10/04 12:08:39;;;;;;;;;;;;;;;15.62;72.17;101042.33;107681;275;96729;-59
2023/10/04 12:11:13;;;;;;;;;;;;;;;15.55;72.27;101040.09;107724;275;121889;-55
2023/10/04 12:13:49;;;;;;;;;;;;;;;15.50;72.04;101042.60;107681;275;106349;-55
2023/10/04 12:16:24;;;;;;;;;;;;;;;15.47;72.20;101037.48;107645;275;114261;-55
2023/10/04 12:18:59;;;;;;;;;;;;;;;15.48;72.23;101040.73;107646;275;94513;-53
2023/10/04 12:21:31;;;;;;;;;;;;;;;15.43;72.24;101037.29;107677;275;97193;-60
2023/10/04 12:24:04;;;;;;;;;;;;;;;15.35;72.24;101038.59;107625;275;121031;-59
2023/10/04 12:26:40;;;;;;;;;;;;;;;15.31;72.26;101041.05;107683;275;105575;-57
2023/10/04 12:29:14;;;;;;;;;;;;;;;15.29;72.20;101044.69;107663;275;113480;-58
2023/10/04 12:31:50;;;;;;;;;;;;;;;15.35;72.45;101047.04;107688;275;95668;-58
2023/10/04 12:34:27;;;;;;;;;;;;;;;15.43;72.46;101044.42;107699;275;96977;-60
2023/10/04 12:37:01;;;;;;;;;;;;;;;15.50;72.44;101052.33;107709;275;121158;-57
2023/10/04 12:39:38;;;;;;;;;;;;;;;15.55;72.44;101050.73;107640;275;104406;-57
2023/10/04 12:42:15;;;;;;;;;;;;;;;15.49;72.50;101050.45;107709;275;114390;-61
2023/10/04 12:44:54;;;;;;;;;;;;;;;15.46;72.46;101049.06;107701;275;94399;-60
2023/10/04 12:47:24;;;;;;;;;;;;;;;15.39;72.44;101046.69;107710;275;95277;-59
2023/10/04 12:49:59;;;;;;;;;;;;;;;15.40;72.45;101047.94;107700;276;122504;-59
2023/10/04 12:52:35;;;;;;;;;;;;;;;15.37;72.55;101046.14;107702;275;105354;-57
2023/10/04 12:55:08;;;;;;;;;;;;;;;15.38;72.60;101043.67;107653;275;115199;-56
2023/10/04 12:57:45;;;;;;;;;;;;;;;15.39;72.60;101042.54;107673;275;94663;-59
2023/10/04 13:00:25;;;;;;;;;;;;;;;15.44;72.59;101042.09;107657;275;97779;-60
2023/10/04 13:02:57;;;;;;;;;;;;;;;15.46;72.53;101042.61;107727;275;121425;-57
2023/10/04 13:05:35;;;;;;;;;;;;;;;15.52;72.36;101042.22;107713;275;104747;-57
2023/10/04 13:08:20;;;;;;;;;;;;;;;15.58;72.36;101039.80;107513;275;112957;-55
2023/10/04 13:11:03;;;;;;;;;;;;;;;15.62;72.25;101038.23;107672;275;95626;-59
2023/10/04 13:13:40;;;;;;;;;;;;;;;15.72;72.45;101038.49;107713;275;97227;-58
2023/10/04 13:16:18;;;;;;;;;;;;;;;15.82;72.57;101040.73;107705;275;121358;-56
2023/10/04 13:18:49;;;;;;;;;;;;;;;15.86;72.36;101035.95;107695;275;104364;-54